sensor_id;sensor_type;location;lat;lon;timestamp;pressure;altitude;pressure_sealevel;temperature;humidity
56420;BME280;42323;52.170;7.538;2022-09-17T00:01:06;100621.13;;;10.83;100.00
56420;BME280;42323;52.170;7.538;2022-09-17T00:03:34;100633.13;;;10.87;100.00
56420;BME280;42323;52.170;7.538;2022-09-17T00:06:05;100630.59;;;10.85;100.00
56420;BME280;42323;52.170;7.538;2022-09-17T00:08:34;100631.59;;;10.84;100.00
56420;BME280;42323;52.170;7.538;2022-09-17T00:11:17;100628.09;;;10.84;100.00
56420;BME280;42323;52.170;7.538;2022-09-17T00:13:47;100633.13;;;10.87;100.00
56420;BME280;42323;52.170;7.538;2022-09-17T00:16:22;100633.41;;;10.84;100.00
56420;BME280;42323;52.170;7.538;2022-09-17T00:18:49;100630.47;;;10.87;100.00
56420;BME280;42323;52.170;7.538;2022-09-17T00:21:17;100631.44;;;10.86;100.00
56420;BME280;42323;52.170;7.538;2022-09-17T00:23:44;100624.75;;;10.82;100.00
56420;BME280;42323;52.170;7.538;2022-09-17T00:26:11;100643.22;;;10.83;100.00
56420;BME280;42323;52.170;7.538;2022-09-17T00:28:38;100628.06;;;10.76;100.00
56420;BME280;42323;52.170;7.538;2022-09-17T00:31:08;100628.72;;;10.78;100.00
56420;BME280;42323;52.170;7.538;2022-09-17T00:33:36;100634.56;;;10.81;100.00
56420;BME280;42323;52.170;7.538;2022-09-17T00:36:04;100637.06;;;10.83;100.00
56420;BME280;42323;52.170;7.538;2022-09-17T00:38:32;100643.38;;;10.82;100.00
56420;BME280;42323;52.170;7.538;2022-09-17T00:41:00;100638.03;;;10.73;100.00
56420;BME280;42323;52.170;7.538;2022-09-17T00:43:42;100637.72;;;10.77;100.00
56420;BME280;42323;52.170;7.538;2022-09-17T00:48:47;100633.03;;;10.70;100.00
56420;BME280;42323;52.170;7.538;2022-09-17T00:51:18;100647.63;;;10.66;100.00
56420;BME280;42323;52.170;7.538;2022-09-17T00:53:45;100663.59;;;10.66;100.00
56420;BME280;42323;52.170;7.538;2022-09-17T00:56:21;100650.13;;;10.68;100.00
56420;BME280;42323;52.170;7.538;2022-09-17T00:58:50;100644.34;;;10.72;100.00
56420;BME280;42323;52.170;7.538;2022-09-17T01:01:18;100650.34;;;10.74;100.00
56420;BME280;42323;52.170;7.538;2022-09-17T01:03:45;100654.13;;;10.72;100.00
56420;BME280;42323;52.170;7.538;2022-09-17T01:06:24;100653.16;;;10.73;100.00
56420;BME280;42323;52.170;7.538;2022-09-17T01:11:30;100635.31;;;10.65;100.00
56420;BME280;42323;52.170;7.538;2022-09-17T01:14:38;100633.25;;;10.59;100.00
56420;BME280;42323;52.170;7.538;2022-09-17T01:35:27;100652.66;;;10.16;100.00
56420;BME280;42323;52.170;7.538;2022-09-17T01:41:00;100652.06;;;10.04;100.00
56420;BME280;42323;52.170;7.538;2022-09-17T01:44:07;100654.88;;;10.03;100.00
56420;BME280;42323;52.170;7.538;2022-09-17T01:46:43;100652.66;;;9.98;100.00
56420;BME280;42323;52.170;7.538;2022-09-17T01:49:14;100658.56;;;9.92;100.00
56420;BME280;42323;52.170;7.538;2022-09-17T01:51:45;100647.03;;;9.83;100.00
56420;BME280;42323;52.170;7.538;2022-09-17T01:54:19;100651.66;;;9.81;100.00
56420;BME280;42323;52.170;7.538;2022-09-17T01:57:03;100650.53;;;9.84;100.00
56420;BME280;42323;52.170;7.538;2022-09-17T01:59:45;100657.59;;;9.75;100.00
56420;BME280;42323;52.170;7.538;2022-09-17T02:02:22;100659.78;;;9.80;100.00
56420;BME280;42323;52.170;7.538;2022-09-17T02:05:00;100659.25;;;9.76;100.00
56420;BME280;42323;52.170;7.538;2022-09-17T02:07:30;100653.38;;;9.73;100.00
56420;BME280;42323;52.170;7.538;2022-09-17T02:10:03;100654.94;;;9.75;100.00
56420;BME280;42323;52.170;7.538;2022-09-17T02:12:42;100645.34;;;9.65;100.00
56420;BME280;42323;52.170;7.538;2022-09-17T02:15:16;100653.16;;;9.66;100.00
56420;BME280;42323;52.170;7.538;2022-09-17T02:17:50;100643.34;;;9.67;100.00
56420;BME280;42323;52.170;7.538;2022-09-17T02:20:25;100636.00;;;9.61;100.00
56420;BME280;42323;52.170;7.538;2022-09-17T02:22:59;100642.69;;;9.65;100.00
56420;BME280;42323;52.170;7.538;2022-09-17T02:25:47;100643.66;;;9.64;100.00
56420;BME280;42323;52.170;7.538;2022-09-17T02:30:45;100640.63;;;9.59;100.00
56420;BME280;42323;52.170;7.538;2022-09-17T02:33:13;100646.09;;;9.57;100.00
56420;BME280;42323;52.170;7.538;2022-09-17T02:35:42;100635.63;;;9.56;100.00
56420;BME280;42323;52.170;7.538;2022-09-17T02:38:09;100640.09;;;9.55;100.00
56420;BME280;42323;52.170;7.538;2022-09-17T02:40:49;100631.97;;;9.57;100.00
56420;BME280;42323;52.170;7.538;2022-09-17T02:43:42;100642.75;;;9.55;100.00
56420;BME280;42323;52.170;7.538;2022-09-17T02:56:51;100635.81;;;9.44;100.00
56420;BME280;42323;52.170;7.538;2022-09-17T02:59:42;100642.41;;;9.40;100.00
56420;BME280;42323;52.170;7.538;2022-09-17T03:02:25;100646.34;;;9.36;100.00
56420;BME280;42323;52.170;7.538;2022-09-17T03:04:55;100656.13;;;9.36;100.00
56420;BME280;42323;52.170;7.538;2022-09-17T03:07:22;100651.25;;;9.31;100.00
56420;BME280;42323;52.170;7.538;2022-09-17T03:09:50;100657.81;;;9.27;100.00
56420;BME280;42323;52.170;7.538;2022-09-17T03:12:16;100652.94;;;9.32;100.00
56420;BME280;42323;52.170;7.538;2022-09-17T03:14:43;100654.22;;;9.28;100.00
56420;BME280;42323;52.170;7.538;2022-09-17T03:17:11;100662.03;;;9.30;100.00
56420;BME280;42323;52.170;7.538;2022-09-17T03:19:38;100663.84;;;9.29;100.00
56420;BME280;42323;52.170;7.538;2022-09-17T03:22:05;100665.09;;;9.25;100.00
56420;BME280;42323;52.170;7.538;2022-09-17T03:24:32;100662.16;;;9.28;100.00
56420;BME280;42323;52.170;7.538;2022-09-17T03:26:58;100653.63;;;9.34;100.00
56420;BME280;42323;52.170;7.538;2022-09-17T03:29:25;100649.84;;;9.27;100.00
56420;BME280;42323;52.170;7.538;2022-09-17T03:31:52;100641.94;;;9.17;100.00
56420;BME280;42323;52.170;7.538;2022-09-17T03:34:18;100658.94;;;9.25;100.00
56420;BME280;42323;52.170;7.538;2022-09-17T03:36:46;100654.53;;;9.15;100.00
56420;BME280;42323;52.170;7.538;2022-09-17T03:39:14;100669.31;;;9.18;100.00
56420;BME280;42323;52.170;7.538;2022-09-17T03:41:41;100674.75;;;9.16;100.00
56420;BME280;42323;52.170;7.538;2022-09-17T03:44:08;100664.00;;;9.18;100.00
56420;BME280;42323;52.170;7.538;2022-09-17T03:46:36;100670.44;;;9.15;100.00
56420;BME280;42323;52.170;7.538;2022-09-17T03:49:03;100669.59;;;9.15;100.00
56420;BME280;42323;52.170;7.538;2022-09-17T03:51:30;100652.31;;;9.11;100.00
56420;BME280;42323;52.170;7.538;2022-09-17T03:53:56;100656.78;;;9.10;100.00
56420;BME280;42323;52.170;7.538;2022-09-17T03:56:23;100674.91;;;9.15;100.00
56420;BME280;42323;52.170;7.538;2022-09-17T03:58:50;100669.91;;;9.12;100.00
56420;BME280;42323;52.170;7.538;2022-09-17T04:01:16;100682.19;;;9.13;100.00
56420;BME280;42323;52.170;7.538;2022-09-17T04:03:44;100669.47;;;9.16;100.00
56420;BME280;42323;52.170;7.538;2022-09-17T04:06:11;100676.19;;;9.11;100.00
56420;BME280;42323;52.170;7.538;2022-09-17T04:08:38;100678.56;;;9.14;100.00
56420;BME280;42323;52.170;7.538;2022-09-17T04:11:05;100681.34;;;9.12;100.00
56420;BME280;42323;52.170;7.538;2022-09-17T04:13:33;100687.63;;;9.11;100.00
56420;BME280;42323;52.170;7.538;2022-09-17T04:16:00;100692.09;;;9.11;100.00
56420;BME280;42323;52.170;7.538;2022-09-17T04:18:27;100693.38;;;9.07;100.00
56420;BME280;42323;52.170;7.538;2022-09-17T04:20:54;100691.41;;;9.09;100.00
56420;BME280;42323;52.170;7.538;2022-09-17T04:23:20;100695.88;;;9.08;100.00
56420;BME280;42323;52.170;7.538;2022-09-17T04:25:48;100686.53;;;9.04;100.00
56420;BME280;42323;52.170;7.538;2022-09-17T04:28:14;100682.19;;;9.03;100.00
56420;BME280;42323;52.170;7.538;2022-09-17T04:30:41;100693.78;;;9.02;100.00
56420;BME280;42323;52.170;7.538;2022-09-17T04:33:08;100685.44;;;8.97;100.00
56420;BME280;42323;52.170;7.538;2022-09-17T04:35:35;100691.47;;;8.89;100.00
56420;BME280;42323;52.170;7.538;2022-09-17T04:38:03;100691.03;;;8.94;100.00
56420;BME280;42323;52.170;7.538;2022-09-17T04:40:30;100694.50;;;8.95;100.00
56420;BME280;42323;52.170;7.538;2022-09-17T04:42:58;100700.81;;;8.94;100.00
56420;BME280;42323;52.170;7.538;2022-09-17T04:45:25;100706.78;;;8.96;100.00
56420;BME280;42323;52.170;7.538;2022-09-17T04:47:52;100698.16;;;8.94;100.00
56420;BME280;42323;52.170;7.538;2022-09-17T04:50:18;100694.13;;;8.89;100.00
56420;BME280;42323;52.170;7.538;2022-09-17T04:52:46;100693.44;;;8.87;100.00
56420;BME280;42323;52.170;7.538;2022-09-17T04:55:14;100697.34;;;8.83;100.00
56420;BME280;42323;52.170;7.538;2022-09-17T04:57:48;100695.53;;;8.84;100.00
56420;BME280;42323;52.170;7.538;2022-09-17T05:00:17;100690.78;;;8.78;100.00
56420;BME280;42323;52.170;7.538;2022-09-17T05:02:47;100694.25;;;8.78;100.00
56420;BME280;42323;52.170;7.538;2022-09-17T05:05:15;100691.22;;;8.73;100.00
56420;BME280;42323;52.170;7.538;2022-09-17T05:07:42;100699.84;;;8.75;100.00
56420;BME280;42323;52.170;7.538;2022-09-17T05:10:10;100705.16;;;8.75;100.00
56420;BME280;42323;52.170;7.538;2022-09-17T05:12:38;100709.63;;;8.75;100.00
56420;BME280;42323;52.170;7.538;2022-09-17T05:15:05;100709.91;;;8.72;100.00
56420;BME280;42323;52.170;7.538;2022-09-17T05:17:32;100712.72;;;8.70;100.00
56420;BME280;42323;52.170;7.538;2022-09-17T05:19:59;100707.69;;;8.67;100.00
56420;BME280;42323;52.170;7.538;2022-09-17T05:22:26;100711.19;;;8.68;100.00
56420;BME280;42323;52.170;7.538;2022-09-17T05:24:52;100718.59;;;8.64;100.00
56420;BME280;42323;52.170;7.538;2022-09-17T05:27:19;100710.63;;;8.64;100.00
56420;BME280;42323;52.170;7.538;2022-09-17T05:29:46;100712.72;;;8.61;100.00
56420;BME280;42323;52.170;7.538;2022-09-17T05:32:12;100718.13;;;8.59;100.00
56420;BME280;42323;52.170;7.538;2022-09-17T05:34:39;100724.72;;;8.65;100.00
56420;BME280;42323;52.170;7.538;2022-09-17T05:37:10;100722.75;;;8.67;100.00
56420;BME280;42323;52.170;7.538;2022-09-17T05:39:37;100740.88;;;8.71;100.00
56420;BME280;42323;52.170;7.538;2022-09-17T05:42:03;100735.44;;;8.73;100.00
56420;BME280;42323;52.170;7.538;2022-09-17T05:44:30;100732.78;;;8.73;100.00
56420;BME280;42323;52.170;7.538;2022-09-17T05:46:57;100728.31;;;8.73;100.00
56420;BME280;42323;52.170;7.538;2022-09-17T05:49:24;100736.97;;;8.75;100.00
56420;BME280;42323;52.170;7.538;2022-09-17T05:51:51;100732.78;;;8.82;100.00
56420;BME280;42323;52.170;7.538;2022-09-17T05:54:18;100735.41;;;8.82;100.00
56420;BME280;42323;52.170;7.538;2022-09-17T05:56:45;100741.44;;;8.84;100.00
56420;BME280;42323;52.170;7.538;2022-09-17T05:59:12;100725.38;;;8.76;100.00
56420;BME280;42323;52.170;7.538;2022-09-17T06:01:40;100741.16;;;8.87;100.00
56420;BME280;42323;52.170;7.538;2022-09-17T06:04:08;100741.69;;;8.81;100.00
56420;BME280;42323;52.170;7.538;2022-09-17T06:06:35;100739.78;;;8.83;100.00
56420;BME280;42323;52.170;7.538;2022-09-17T06:09:04;100741.16;;;8.87;100.00
56420;BME280;42323;52.170;7.538;2022-09-17T06:11:31;100748.13;;;8.88;100.00
56420;BME280;42323;52.170;7.538;2022-09-17T06:14:00;100753.44;;;8.88;100.00
56420;BME280;42323;52.170;7.538;2022-09-17T06:16:27;100750.38;;;8.83;100.00
56420;BME280;42323;52.170;7.538;2022-09-17T06:18:54;100759.28;;;8.92;100.00
56420;BME280;42323;52.170;7.538;2022-09-17T06:21:22;100760.69;;;8.96;100.00
56420;BME280;42323;52.170;7.538;2022-09-17T06:23:49;100763.59;;;9.03;100.00
56420;BME280;42323;52.170;7.538;2022-09-17T06:26:17;100755.63;;;9.12;100.00
56420;BME280;42323;52.170;7.538;2022-09-17T06:28:44;100763.16;;;9.17;100.00
56420;BME280;42323;52.170;7.538;2022-09-17T06:31:12;100761.19;;;9.29;100.00
56420;BME280;42323;52.170;7.538;2022-09-17T06:33:39;100761.81;;;9.40;100.00
56420;BME280;42323;52.170;7.538;2022-09-17T06:36:08;100755.75;;;9.58;100.00
56420;BME280;42323;52.170;7.538;2022-09-17T06:38:40;100747.72;;;9.77;100.00
56420;BME280;42323;52.170;7.538;2022-09-17T06:41:07;100743.16;;;9.87;100.00
56420;BME280;42323;52.170;7.538;2022-09-17T06:43:34;100749.66;;;10.02;100.00
56420;BME280;42323;52.170;7.538;2022-09-17T06:46:04;100738.81;;;10.13;100.00
56420;BME280;42323;52.170;7.538;2022-09-17T06:48:33;100735.84;;;10.26;100.00
56420;BME280;42323;52.170;7.538;2022-09-17T06:51:04;100744.72;;;10.35;100.00
56420;BME280;42323;52.170;7.538;2022-09-17T06:53:32;100730.75;;;10.33;100.00
56420;BME280;42323;52.170;7.538;2022-09-17T06:56:00;100747.06;;;10.38;100.00
56420;BME280;42323;52.170;7.538;2022-09-17T06:58:33;100726.78;;;10.37;100.00
56420;BME280;42323;52.170;7.538;2022-09-17T07:01:04;100737.72;;;10.52;100.00
56420;BME280;42323;52.170;7.538;2022-09-17T07:03:31;100728.41;;;10.65;100.00
56420;BME280;42323;52.170;7.538;2022-09-17T07:05:58;100728.25;;;10.67;100.00
56420;BME280;42323;52.170;7.538;2022-09-17T07:08:25;100726.72;;;10.64;100.00
56420;BME280;42323;52.170;7.538;2022-09-17T07:10:57;100719.81;;;10.54;100.00
56420;BME280;42323;52.170;7.538;2022-09-17T07:13:24;100729.38;;;10.64;100.00
56420;BME280;42323;52.170;7.538;2022-09-17T07:15:56;100739.75;;;10.76;100.00
56420;BME280;42323;52.170;7.538;2022-09-17T07:18:24;100731.47;;;10.79;100.00
56420;BME280;42323;52.170;7.538;2022-09-17T07:20:55;100742.78;;;10.81;100.00
56420;BME280;42323;52.170;7.538;2022-09-17T07:23:24;100734.22;;;10.87;100.00
56420;BME280;42323;52.170;7.538;2022-09-17T07:25:56;100723.84;;;10.84;100.00
56420;BME280;42323;52.170;7.538;2022-09-17T07:28:24;100723.97;;;11.00;100.00
56420;BME280;42323;52.170;7.538;2022-09-17T07:30:52;100729.06;;;11.11;100.00
56420;BME280;42323;52.170;7.538;2022-09-17T07:33:21;100723.75;;;11.11;100.00
56420;BME280;42323;52.170;7.538;2022-09-17T07:35:55;100726.63;;;11.26;100.00
56420;BME280;42323;52.170;7.538;2022-09-17T07:38:23;100725.53;;;11.37;100.00
56420;BME280;42323;52.170;7.538;2022-09-17T07:41:04;100740.03;;;11.42;100.00
56420;BME280;42323;52.170;7.538;2022-09-17T07:43:33;100730.75;;;11.46;100.00
56420;BME280;42323;52.170;7.538;2022-09-17T07:46:01;100735.97;;;11.56;100.00
56420;BME280;42323;52.170;7.538;2022-09-17T07:48:30;100736.63;;;11.58;100.00
56420;BME280;42323;52.170;7.538;2022-09-17T07:50:57;100713.84;;;11.55;100.00
56420;BME280;42323;52.170;7.538;2022-09-17T07:53:25;100737.31;;;11.60;100.00
56420;BME280;42323;52.170;7.538;2022-09-17T07:55:57;100724.53;;;11.72;100.00
56420;BME280;42323;52.170;7.538;2022-09-17T07:58:29;100723.84;;;11.70;100.00
56420;BME280;42323;52.170;7.538;2022-09-17T08:01:03;100718.59;;;11.78;100.00
56420;BME280;42323;52.170;7.538;2022-09-17T08:03:30;100724.78;;;11.78;100.00
56420;BME280;42323;52.170;7.538;2022-09-17T08:06:02;100730.47;;;11.91;100.00
56420;BME280;42323;52.170;7.538;2022-09-17T08:08:31;100701.00;;;11.93;100.00
56420;BME280;42323;52.170;7.538;2022-09-17T08:11:04;100716.69;;;12.04;100.00
56420;BME280;42323;52.170;7.538;2022-09-17T08:13:32;100714.19;;;12.11;100.00
56420;BME280;42323;52.170;7.538;2022-09-17T08:16:00;100714.88;;;12.21;100.00
56420;BME280;42323;52.170;7.538;2022-09-17T08:18:27;100697.88;;;12.14;100.00
56420;BME280;42323;52.170;7.538;2022-09-17T08:20:59;100693.25;;;12.24;100.00
56420;BME280;42323;52.170;7.538;2022-09-17T08:23:27;100681.22;;;12.20;100.00
56420;BME280;42323;52.170;7.538;2022-09-17T08:25:55;100698.56;;;12.32;100.00
56420;BME280;42323;52.170;7.538;2022-09-17T08:28:24;100708.41;;;12.40;100.00
56420;BME280;42323;52.170;7.538;2022-09-17T08:30:52;100722.25;;;12.51;100.00
56420;BME280;42323;52.170;7.538;2022-09-17T08:33:19;100723.25;;;12.58;100.00
56420;BME280;42323;52.170;7.538;2022-09-17T08:35:53;100705.41;;;12.67;100.00
56420;BME280;42323;52.170;7.538;2022-09-17T08:38:21;100717.59;;;12.78;100.00
56420;BME280;42323;52.170;7.538;2022-09-17T08:41:10;100720.91;;;12.96;100.00
56420;BME280;42323;52.170;7.538;2022-09-17T08:46:42;100738.75;;;13.04;100.00
56420;BME280;42323;52.170;7.538;2022-09-17T08:51:58;100706.88;;;13.18;100.00
56420;BME280;42323;52.170;7.538;2022-09-17T09:00:15;100700.91;;;13.56;100.00
56420;BME280;42323;52.170;7.538;2022-09-17T09:10:54;100698.94;;;13.89;100.00
56420;BME280;42323;52.170;7.538;2022-09-17T09:13:28;100705.34;;;14.02;100.00
56420;BME280;42323;52.170;7.538;2022-09-17T09:16:02;100719.63;;;14.18;100.00
56420;BME280;42323;52.170;7.538;2022-09-17T09:18:37;100706.56;;;14.23;100.00
56420;BME280;42323;52.170;7.538;2022-09-17T09:23:53;100707.94;;;14.19;100.00
56420;BME280;42323;52.170;7.538;2022-09-17T09:26:48;100713.41;;;14.25;100.00
56420;BME280;42323;52.170;7.538;2022-09-17T09:35:07;100707.00;;;14.80;100.00
56420;BME280;42323;52.170;7.538;2022-09-17T09:37:40;100704.69;;;14.77;100.00
56420;BME280;42323;52.170;7.538;2022-09-17T09:43:06;100710.66;;;15.31;100.00
56420;BME280;42323;52.170;7.538;2022-09-17T09:48:30;100696.16;;;15.26;100.00
56420;BME280;42323;52.170;7.538;2022-09-17T09:59:10;100696.06;;;16.57;91.13
56420;BME280;42323;52.170;7.538;2022-09-17T10:01:40;100699.13;;;16.54;88.61
56420;BME280;42323;52.170;7.538;2022-09-17T10:06:48;100704.78;;;17.43;79.73
56420;BME280;42323;52.170;7.538;2022-09-17T10:09:16;100700.69;;;18.01;77.83
56420;BME280;42323;52.170;7.538;2022-09-17T10:14:38;100702.47;;;18.42;73.49
56420;BME280;42323;52.170;7.538;2022-09-17T10:17:18;100695.88;;;18.78;69.67
56420;BME280;42323;52.170;7.538;2022-09-17T10:22:30;100695.09;;;17.96;66.22
56420;BME280;42323;52.170;7.538;2022-09-17T10:24:59;100688.19;;;17.74;70.81
56420;BME280;42323;52.170;7.538;2022-09-17T10:27:28;100707.66;;;17.76;70.50
56420;BME280;42323;52.170;7.538;2022-09-17T10:30:13;100692.91;;;18.26;67.23
56420;BME280;42323;52.170;7.538;2022-09-17T10:35:39;100688.13;;;18.22;67.35
56420;BME280;42323;52.170;7.538;2022-09-17T10:38:47;100717.47;;;17.62;69.53
56420;BME280;42323;52.170;7.538;2022-09-17T10:41:20;100720.72;;;16.89;75.11
56420;BME280;42323;52.170;7.538;2022-09-17T10:43:48;100725.53;;;15.78;86.21
56420;BME280;42323;52.170;7.538;2022-09-17T10:46:29;100749.38;;;14.54;100.00
56420;BME280;42323;52.170;7.538;2022-09-17T10:52:11;100738.94;;;12.78;100.00
56420;BME280;42323;52.170;7.538;2022-09-17T11:16:05;100675.03;;;19.44;85.12
56420;BME280;42323;52.170;7.538;2022-09-17T11:26:42;100696.97;;;16.43;99.43
56420;BME280;42323;52.170;7.538;2022-09-17T11:37:05;100684.69;;;15.47;100.00
56420;BME280;42323;52.170;7.538;2022-09-17T11:39:43;100689.22;;;15.31;100.00
56420;BME280;42323;52.170;7.538;2022-09-17T11:42:17;100681.22;;;15.17;100.00
56420;BME280;42323;52.170;7.538;2022-09-17T11:44:58;100670.38;;;16.27;100.00
56420;BME280;42323;52.170;7.538;2022-09-17T11:47:39;100659.28;;;17.89;100.00
56420;BME280;42323;52.170;7.538;2022-09-17T11:50:20;100657.03;;;17.99;98.21
56420;BME280;42323;52.170;7.538;2022-09-17T11:53:02;100663.88;;;18.09;95.36
56420;BME280;42323;52.170;7.538;2022-09-17T11:55:41;100663.56;;;18.64;94.11
56420;BME280;42323;52.170;7.538;2022-09-17T11:58:17;100669.13;;;18.56;85.99
56420;BME280;42323;52.170;7.538;2022-09-17T12:00:53;100666.81;;;18.27;84.60
56420;BME280;42323;52.170;7.538;2022-09-17T12:03:29;100649.50;;;17.75;81.41
56420;BME280;42323;52.170;7.538;2022-09-17T12:06:05;100661.63;;;17.58;86.83
56420;BME280;42323;52.170;7.538;2022-09-17T12:08:56;100674.50;;;18.36;79.93
56420;BME280;42323;52.170;7.538;2022-09-17T12:12:02;100654.63;;;19.68;75.38
56420;BME280;42323;52.170;7.538;2022-09-17T12:14:53;100664.16;;;19.06;73.74
56420;BME280;42323;52.170;7.538;2022-09-17T12:17:37;100663.38;;;17.79;79.94
56420;BME280;42323;52.170;7.538;2022-09-17T12:20:19;100659.19;;;18.57;80.81
56420;BME280;42323;52.170;7.538;2022-09-17T12:22:50;100665.19;;;18.98;81.57
56420;BME280;42323;52.170;7.538;2022-09-17T12:25:20;100679.66;;;19.17;80.91
56420;BME280;42323;52.170;7.538;2022-09-17T12:27:58;100665.06;;;19.58;77.67
56420;BME280;42323;52.170;7.538;2022-09-17T12:30:36;100641.44;;;19.47;72.54
56420;BME280;42323;52.170;7.538;2022-09-17T12:33:14;100659.06;;;19.49;74.76
56420;BME280;42323;52.170;7.538;2022-09-17T12:41:42;100640.94;;;20.33;70.15
56420;BME280;42323;52.170;7.538;2022-09-17T13:01:29;100732.91;;;14.34;100.00
56420;BME280;42323;52.170;7.538;2022-09-17T13:04:02;100747.38;;;13.46;100.00
56420;BME280;42323;52.170;7.538;2022-09-17T13:12:19;100762.94;;;11.95;100.00
56420;BME280;42323;52.170;7.538;2022-09-17T13:17:29;100745.91;;;11.20;100.00
56420;BME280;42323;52.170;7.538;2022-09-17T13:22:48;100743.25;;;11.20;100.00
56420;BME280;42323;52.170;7.538;2022-09-17T13:25:16;100739.75;;;11.19;100.00
56420;BME280;42323;52.170;7.538;2022-09-17T13:27:45;100726.09;;;11.14;100.00
56420;BME280;42323;52.170;7.538;2022-09-17T13:30:13;100721.06;;;12.38;100.00
56420;BME280;42323;52.170;7.538;2022-09-17T13:32:49;100691.88;;;13.96;100.00
56420;BME280;42323;52.170;7.538;2022-09-17T13:40:22;100661.97;;;16.30;100.00
56420;BME280;42323;52.170;7.538;2022-09-17T13:42:52;100652.97;;;16.87;100.00
56420;BME280;42323;52.170;7.538;2022-09-17T13:45:24;100654.72;;;17.01;100.00
56420;BME280;42323;52.170;7.538;2022-09-17T13:50:34;100662.34;;;17.38;100.00
56420;BME280;42323;52.170;7.538;2022-09-17T13:55:48;100643.19;;;18.09;100.00
56420;BME280;42323;52.170;7.538;2022-09-17T14:01:57;100648.53;;;17.89;100.00
56420;BME280;42323;52.170;7.538;2022-09-17T14:03:52;100669.13;;;18.56;100.00
56420;BME280;42323;52.170;7.538;2022-09-17T14:08:50;100654.44;;;18.79;96.77
56420;BME280;42323;52.170;7.538;2022-09-17T14:27:43;100642.03;;;20.57;68.79
56420;BME280;42323;52.170;7.538;2022-09-17T14:33:07;100638.00;;;20.09;72.17
56420;BME280;42323;52.170;7.538;2022-09-17T14:35:48;100633.97;;;20.25;68.22
56420;BME280;42323;52.170;7.538;2022-09-17T14:38:20;100630.13;;;20.39;68.93
56420;BME280;42323;52.170;7.538;2022-09-17T14:41:02;100656.84;;;19.26;73.26
56420;BME280;42323;52.170;7.538;2022-09-17T14:43:52;100646.94;;;18.28;80.17
56420;BME280;42323;52.170;7.538;2022-09-17T14:46:26;100656.50;;;18.57;81.19
56420;BME280;42323;52.170;7.538;2022-09-17T14:49:17;100671.44;;;17.79;81.59
56420;BME280;42323;52.170;7.538;2022-09-17T14:51:45;100659.44;;;17.33;90.30
56420;BME280;42323;52.170;7.538;2022-09-17T14:54:15;100670.75;;;16.66;95.08
56420;BME280;42323;52.170;7.538;2022-09-17T15:01:52;100644.41;;;17.93;93.10
56420;BME280;42323;52.170;7.538;2022-09-17T15:04:21;100648.19;;;18.98;88.13
56420;BME280;42323;52.170;7.538;2022-09-17T15:06:49;100659.38;;;19.08;81.15
56420;BME280;42323;52.170;7.538;2022-09-17T15:09:22;100647.94;;;19.26;78.25
56420;BME280;42323;52.170;7.538;2022-09-17T15:11:54;100642.25;;;19.54;76.49
56420;BME280;42323;52.170;7.538;2022-09-17T15:14:32;100637.22;;;19.64;74.90
56420;BME280;42323;52.170;7.538;2022-09-17T15:17:02;100645.34;;;19.44;74.64
56420;BME280;42323;52.170;7.538;2022-09-17T15:19:41;100654.72;;;19.35;73.45
56420;BME280;42323;52.170;7.538;2022-09-17T15:22:35;100666.44;;;18.70;76.72
56420;BME280;42323;52.170;7.538;2022-09-17T15:25:08;100653.59;;;18.85;79.55
56420;BME280;42323;52.170;7.538;2022-09-17T15:27:45;100656.06;;;18.47;82.15
56420;BME280;42323;52.170;7.538;2022-09-17T15:30:18;100663.28;;;18.13;84.59
56420;BME280;42323;52.170;7.538;2022-09-17T15:32:54;100640.81;;;17.25;93.04
56420;BME280;42323;52.170;7.538;2022-09-17T15:35:26;100650.00;;;17.09;95.76
56420;BME280;42323;52.170;7.538;2022-09-17T15:38:00;100649.06;;;17.24;96.30
56420;BME280;42323;52.170;7.538;2022-09-17T15:40:49;100634.34;;;16.85;99.34
56420;BME280;42323;52.170;7.538;2022-09-17T15:43:28;100655.44;;;16.17;100.00
56420;BME280;42323;52.170;7.538;2022-09-17T15:45:56;100660.81;;;15.81;100.00
56420;BME280;42323;52.170;7.538;2022-09-17T15:50:55;100679.72;;;15.29;100.00
56420;BME280;42323;52.170;7.538;2022-09-17T15:53:25;100693.34;;;14.90;100.00
56420;BME280;42323;52.170;7.538;2022-09-17T15:55:59;100680.97;;;14.74;100.00
56420;BME280;42323;52.170;7.538;2022-09-17T16:08:48;100676.53;;;16.91;86.89
56420;BME280;42323;52.170;7.538;2022-09-17T16:11:17;100701.50;;;17.20;85.64
56420;BME280;42323;52.170;7.538;2022-09-17T16:13:51;100676.84;;;17.03;87.54
56420;BME280;42323;52.170;7.538;2022-09-17T16:16:34;100692.41;;;16.43;94.56
56420;BME280;42323;52.170;7.538;2022-09-17T16:19:03;100693.66;;;16.05;99.00
56420;BME280;42323;52.170;7.538;2022-09-17T16:21:30;100702.47;;;15.63;100.00
56420;BME280;42323;52.170;7.538;2022-09-17T16:23:57;100704.00;;;15.57;100.00
56420;BME280;42323;52.170;7.538;2022-09-17T16:26:28;100719.69;;;15.01;100.00
56420;BME280;42323;52.170;7.538;2022-09-17T16:29:02;100700.44;;;14.83;100.00
56420;BME280;42323;52.170;7.538;2022-09-17T16:31:30;100719.22;;;14.60;100.00
56420;BME280;42323;52.170;7.538;2022-09-17T16:33:58;100703.22;;;14.52;100.00
56420;BME280;42323;52.170;7.538;2022-09-17T16:36:26;100712.47;;;14.41;100.00
56420;BME280;42323;52.170;7.538;2022-09-17T16:38:57;100705.25;;;14.19;100.00
56420;BME280;42323;52.170;7.538;2022-09-17T16:41:24;100721.25;;;14.04;100.00
56420;BME280;42323;52.170;7.538;2022-09-17T16:43:50;100723.34;;;13.86;100.00
56420;BME280;42323;52.170;7.538;2022-09-17T16:46:17;100724.69;;;13.82;100.00
56420;BME280;42323;52.170;7.538;2022-09-17T16:48:48;100719.59;;;13.64;100.00